createdAt,value
2018-12-12T00:02:22.291Z,78.41
2018-12-12T00:04:51.069Z,77.85
2018-12-12T00:07:20.819Z,78.18
2018-12-12T00:09:49.626Z,78.13
2018-12-12T00:12:18.328Z,77.75
2018-12-12T00:14:47.059Z,78.01
2018-12-12T00:17:15.676Z,77.61
2018-12-12T00:19:44.374Z,77.52
2018-12-12T00:22:13.087Z,78.36
2018-12-12T00:24:41.772Z,78.44
2018-12-12T00:27:10.563Z,78.70
2018-12-12T00:29:39.255Z,78.62
2018-12-12T00:32:07.971Z,78.08
2018-12-12T00:34:36.768Z,77.88
2018-12-12T00:37:05.379Z,77.40
2018-12-12T00:39:34.137Z,77.30
2018-12-12T00:42:02.840Z,77.54
2018-12-12T00:44:31.532Z,77.30
2018-12-12T00:47:00.466Z,77.14
2018-12-12T00:49:29.125Z,78.12
2018-12-12T00:51:57.808Z,77.24
2018-12-12T00:54:26.565Z,77.41
2018-12-12T00:56:55.300Z,77.68
2018-12-12T00:59:24.008Z,77.74
2018-12-12T01:01:52.788Z,77.53
2018-12-12T01:04:22.133Z,78.26
2018-12-12T01:06:50.808Z,78.51
2018-12-12T01:09:19.755Z,78.35
2018-12-12T01:11:53.778Z,78.62
2018-12-12T01:14:22.498Z,78.88
2018-12-12T01:16:51.209Z,78.04
2018-12-12T01:19:19.936Z,77.80
2018-12-12T01:21:48.652Z,79.04
2018-12-12T01:24:17.280Z,78.46
2018-12-12T01:26:46.024Z,78.40
2018-12-12T01:29:14.852Z,78.60
2018-12-12T01:31:43.549Z,78.80
2018-12-12T01:34:12.294Z,79.21
2018-12-12T01:36:40.997Z,77.98
2018-12-12T01:39:09.716Z,77.46
2018-12-12T01:41:38.410Z,77.74
2018-12-12T01:44:07.133Z,78.49
2018-12-12T01:46:35.900Z,78.59
2018-12-12T01:49:04.748Z,78.82
2018-12-12T01:51:33.444Z,79.75
2018-12-12T01:54:02.178Z,79.30
2018-12-12T01:56:30.868Z,80.05
2018-12-12T01:58:59.667Z,79.90
2018-12-12T02:01:28.440Z,79.54
2018-12-12T02:03:57.160Z,78.56
2018-12-12T02:06:26.016Z,79.27
2018-12-12T02:08:54.972Z,79.45
2018-12-12T02:11:23.680Z,79.68
2018-12-12T02:13:52.499Z,79.41
2018-12-12T02:16:21.619Z,79.37
2018-12-12T02:18:50.402Z,79.45
2018-12-12T02:21:19.166Z,79.24
2018-12-12T02:23:47.891Z,79.48
2018-12-12T02:26:16.628Z,79.82
2018-12-12T02:28:45.580Z,79.83
2018-12-12T02:31:14.433Z,79.80
2018-12-12T02:33:43.200Z,79.91
2018-12-12T02:36:12.083Z,79.50
2018-12-12T02:38:40.797Z,79.86
2018-12-12T02:41:09.531Z,80.36
2018-12-12T02:43:38.272Z,80.29
2018-12-12T02:46:06.957Z,80.63
2018-12-12T02:48:35.771Z,80.86
2018-12-12T02:51:04.818Z,81.19
2018-12-12T02:53:33.580Z,81.19
2018-12-12T02:56:02.379Z,81.34
2018-12-12T02:58:31.216Z,81.36
2018-12-12T03:00:59.998Z,81.10
2018-12-12T03:03:28.788Z,81.19
2018-12-12T03:05:57.590Z,81.76
2018-12-12T03:08:26.388Z,81.59
2018-12-12T03:10:55.158Z,81.20
2018-12-12T03:13:24.044Z,81.25
2018-12-12T03:15:52.757Z,81.35
2018-12-12T03:18:21.476Z,80.99
2018-12-12T03:20:50.203Z,80.83
2018-12-12T03:23:19.016Z,81.16
2018-12-12T03:25:47.785Z,80.26
2018-12-12T03:28:16.511Z,80.55
2018-12-12T03:30:45.217Z,80.92
2018-12-12T03:33:13.927Z,80.49
2018-12-12T03:35:42.630Z,81.09
2018-12-12T03:38:11.342Z,80.47
2018-12-12T03:40:40.537Z,80.53
2018-12-12T03:43:09.604Z,80.41
2018-12-12T03:45:38.283Z,80.62
2018-12-12T03:48:07.096Z,80.77
2018-12-12T03:50:35.964Z,81.16
2018-12-12T03:53:04.830Z,81.06
2018-12-12T03:55:33.507Z,80.74
2018-12-12T03:58:02.223Z,80.32
2018-12-12T04:00:31.021Z,80.06
2018-12-12T04:02:59.827Z,80.38
2018-12-12T04:05:28.523Z,80.75
2018-12-12T04:07:57.405Z,80.17
2018-12-12T04:10:26.172Z,81.38
2018-12-12T04:12:54.912Z,81.56
2018-12-12T04:15:23.661Z,81.82
2018-12-12T04:17:52.453Z,80.98
2018-12-12T04:20:21.192Z,82.02
2018-12-12T04:22:49.847Z,81.22
2018-12-12T04:25:18.543Z,81.53
2018-12-12T04:27:47.258Z,81.58
2018-12-12T04:30:15.856Z,80.58
2018-12-12T04:32:44.701Z,81.43
2018-12-12T04:35:13.470Z,80.85
2018-12-12T04:37:42.226Z,80.70
2018-12-12T04:40:11.033Z,81.28
2018-12-12T04:42:39.856Z,80.30
2018-12-12T04:45:08.568Z,80.53
2018-12-12T04:47:37.265Z,80.63
2018-12-12T04:50:06.252Z,79.61
2018-12-12T04:52:35.005Z,80.36
2018-12-12T04:55:03.831Z,80.56
2018-12-12T04:57:32.689Z,79.81
2018-12-12T05:00:01.400Z,79.51
2018-12-12T05:02:30.278Z,79.51
2018-12-12T05:04:59.220Z,80.01
2018-12-12T05:07:27.975Z,79.25
2018-12-12T05:09:56.719Z,79.07
2018-12-12T05:12:25.452Z,79.47
2018-12-12T05:14:54.143Z,79.81
2018-12-12T05:17:22.876Z,79.74
2018-12-12T05:19:51.643Z,79.18
2018-12-12T05:22:20.350Z,79.39
2018-12-12T05:24:49.024Z,79.47
2018-12-12T05:27:17.897Z,79.93
2018-12-12T05:29:46.758Z,79.37
2018-12-12T05:32:15.498Z,77.93
2018-12-12T05:34:44.199Z,78.60
2018-12-12T05:37:12.952Z,78.54
2018-12-12T05:39:41.590Z,78.68
2018-12-12T05:42:10.483Z,78.40
2018-12-12T05:44:39.231Z,78.58
2018-12-12T05:47:08.032Z,78.23
2018-12-12T05:49:36.826Z,78.35
2018-12-12T05:52:05.635Z,78.53
2018-12-12T05:54:34.404Z,78.32
2018-12-12T05:57:03.121Z,77.99
2018-12-12T05:59:31.869Z,79.17
2018-12-12T06:02:00.718Z,78.87
2018-12-12T06:04:29.479Z,79.03
2018-12-12T06:06:58.237Z,79.26
2018-12-12T06:09:26.943Z,78.86
2018-12-12T06:11:55.795Z,78.60
2018-12-12T06:14:24.712Z,78.89
2018-12-12T06:16:53.342Z,78.90
2018-12-12T06:19:21.961Z,77.20
2018-12-12T06:21:50.674Z,78.07
2018-12-12T06:24:19.462Z,78.13
2018-12-12T06:26:48.252Z,78.35
2018-12-12T06:29:16.955Z,78.08
2018-12-12T06:31:45.576Z,78.73
2018-12-12T06:34:14.412Z,77.49
2018-12-12T06:36:43.183Z,77.19
2018-12-12T06:39:11.894Z,78.05
2018-12-12T06:41:40.699Z,78.10
2018-12-12T06:44:09.399Z,77.96
2018-12-12T06:46:38.068Z,77.41
2018-12-12T06:49:06.775Z,77.48
2018-12-12T06:51:35.514Z,78.43
2018-12-12T06:54:04.311Z,78.42
2018-12-12T06:56:33.235Z,79.27
2018-12-12T06:59:01.922Z,78.92
2018-12-12T07:01:30.679Z,78.94
2018-12-12T07:03:59.465Z,78.41
2018-12-12T07:06:28.171Z,78.83
2018-12-12T07:08:57.082Z,79.25
2018-12-12T07:11:25.866Z,79.87
2018-12-12T07:13:54.564Z,80.83
2018-12-12T07:16:23.344Z,81.43
2018-12-12T07:18:52.094Z,81.94
2018-12-12T07:21:20.930Z,81.86
2018-12-12T07:23:49.627Z,83.40
2018-12-12T07:26:18.485Z,83.31
2018-12-12T07:28:47.302Z,83.31
2018-12-12T07:31:16.051Z,83.58
2018-12-12T07:33:44.808Z,83.38
2018-12-12T07:36:13.639Z,82.99
2018-12-12T07:38:42.336Z,83.15
2018-12-12T07:41:11.212Z,82.78
2018-12-12T07:43:39.905Z,82.95
2018-12-12T07:46:08.659Z,82.65
2018-12-12T07:48:37.372Z,82.66
2018-12-12T07:51:06.183Z,82.14
2018-12-12T07:53:34.918Z,81.56
2018-12-12T07:56:03.773Z,81.49
2018-12-12T07:58:32.543Z,81.94
2018-12-12T08:01:02.615Z,81.41
2018-12-12T08:03:31.618Z,81.95
2018-12-12T08:06:00.443Z,81.19
2018-12-12T08:08:29.341Z,80.25
2018-12-12T08:10:58.457Z,80.67
2018-12-12T08:13:27.131Z,80.36
2018-12-12T08:15:56.169Z,81.14
2018-12-12T08:18:24.835Z,81.54
2018-12-12T08:20:53.550Z,80.86
2018-12-12T08:23:22.699Z,80.65
2018-12-12T08:25:51.564Z,79.83
2018-12-12T08:28:20.228Z,79.84
2018-12-12T08:30:48.857Z,79.38
2018-12-12T08:33:17.537Z,78.38
2018-12-12T08:35:46.399Z,79.14
2018-12-12T08:38:15.176Z,78.93
2018-12-12T08:40:43.888Z,79.69
2018-12-12T08:43:12.619Z,78.94
2018-12-12T08:45:41.236Z,79.46
2018-12-12T08:48:09.905Z,78.84
2018-12-12T08:50:38.687Z,79.43
2018-12-12T08:53:07.325Z,78.38
2018-12-12T08:55:36.711Z,79.15
2018-12-12T08:58:05.425Z,77.87
2018-12-12T09:00:34.313Z,79.17
2018-12-12T09:03:03.088Z,78.00
2018-12-12T09:05:31.820Z,78.67
2018-12-12T09:08:00.823Z,79.68
2018-12-12T09:10:29.895Z,78.63
2018-12-12T09:12:58.573Z,78.56
2018-12-12T09:15:27.368Z,79.26
2018-12-12T09:17:55.962Z,78.96
2018-12-12T09:20:24.711Z,77.29
2018-12-12T09:22:53.478Z,78.67
2018-12-12T09:25:22.123Z,78.44
2018-12-12T09:27:50.751Z,78.71
2018-12-12T09:30:19.459Z,78.98
2018-12-12T09:32:48.271Z,79.17
2018-12-12T09:35:16.905Z,79.03
2018-12-12T09:37:45.679Z,79.88
2018-12-12T09:40:14.413Z,78.98
2018-12-12T09:42:43.010Z,77.44
2018-12-12T09:45:11.695Z,78.99
2018-12-12T09:47:40.565Z,77.83
2018-12-12T09:50:09.582Z,78.35
2018-12-12T09:52:38.320Z,78.32
2018-12-12T09:55:07.194Z,77.28
2018-12-12T09:57:35.795Z,77.61
2018-12-12T10:00:04.884Z,78.18
2018-12-12T10:02:33.720Z,77.39
2018-12-12T10:05:02.332Z,77.74
2018-12-12T10:07:30.978Z,77.22
2018-12-12T10:09:59.715Z,77.01
2018-12-12T10:12:28.350Z,76.54
2018-12-12T10:14:57.137Z,75.98
2018-12-12T10:17:25.731Z,76.13
2018-12-12T10:19:54.380Z,75.86
2018-12-12T10:22:23.007Z,75.13
2018-12-12T10:24:51.844Z,75.86
2018-12-12T10:27:20.436Z,74.35
2018-12-12T10:29:49.085Z,74.46
2018-12-12T10:32:17.805Z,74.16
2018-12-12T10:34:46.432Z,74.15
2018-12-12T10:37:15.036Z,72.35
2018-12-12T10:39:43.666Z,73.19
2018-12-12T10:42:12.390Z,73.52
2018-12-12T10:44:41.092Z,72.73
2018-12-12T10:47:09.887Z,72.69
2018-12-12T10:49:38.571Z,72.17
2018-12-12T10:52:07.196Z,72.51
2018-12-12T10:54:35.849Z,72.04
2018-12-12T10:57:04.523Z,73.20
2018-12-12T10:59:33.152Z,72.07
2018-12-12T11:02:07.093Z,72.14
2018-12-12T11:04:36.012Z,72.95
2018-12-12T11:07:04.854Z,72.49
2018-12-12T11:09:33.648Z,71.92
2018-12-12T11:12:02.339Z,72.87
2018-12-12T11:14:30.973Z,72.02
2018-12-12T11:16:59.589Z,72.73
2018-12-12T11:19:28.293Z,73.45
2018-12-12T11:21:56.902Z,72.75
2018-12-12T11:24:25.543Z,74.26
2018-12-12T11:26:54.159Z,72.81
2018-12-12T11:29:22.927Z,74.64
2018-12-12T11:31:51.656Z,74.36
2018-12-12T11:34:20.395Z,69.92
2018-12-12T11:36:49.120Z,71.59
2018-12-12T11:39:19.406Z,71.25
2018-12-12T11:41:48.052Z,71.92
2018-12-12T11:44:16.789Z,69.65
2018-12-12T11:46:45.396Z,70.58
2018-12-12T11:49:14.324Z,69.06
2018-12-12T11:51:42.950Z,69.52
2018-12-12T11:54:11.678Z,70.33
2018-12-12T11:56:40.333Z,70.08
2018-12-12T11:59:09.080Z,70.33
2018-12-12T12:01:37.771Z,69.60
2018-12-12T12:04:06.479Z,67.30
2018-12-12T12:06:35.103Z,64.71
2018-12-12T12:09:05.873Z,63.71
2018-12-12T12:11:34.492Z,64.75
2018-12-12T12:14:03.355Z,64.18
2018-12-12T12:16:31.991Z,63.93
2018-12-12T12:19:00.755Z,62.78
2018-12-12T12:21:29.363Z,63.02
2018-12-12T12:23:58.104Z,63.03
2018-12-12T12:26:27.229Z,60.46
2018-12-12T12:28:56.085Z,58.56
2018-12-12T12:31:25.040Z,54.80
2018-12-12T12:33:53.739Z,51.37
2018-12-12T12:36:22.335Z,50.62
2018-12-12T12:38:51.127Z,47.84
2018-12-12T12:41:19.804Z,44.70
2018-12-12T12:43:48.524Z,43.68
2018-12-12T12:46:17.141Z,41.55
2018-12-12T12:48:45.769Z,42.11
2018-12-12T12:51:14.462Z,43.67
2018-12-12T12:53:43.754Z,45.54
2018-12-12T12:56:12.415Z,47.69
2018-12-12T12:58:41.054Z,48.94
2018-12-12T13:01:09.704Z,50.75
2018-12-12T13:03:38.680Z,54.38
2018-12-12T13:06:07.407Z,55.69
2018-12-12T13:08:36.083Z,56.45
2018-12-12T13:11:04.756Z,54.73
2018-12-12T13:13:33.433Z,56.08
2018-12-12T13:16:02.780Z,57.69
2018-12-12T13:18:31.743Z,58.25
2018-12-12T13:21:00.339Z,58.21
2018-12-12T13:23:29.239Z,56.93
2018-12-12T13:25:57.899Z,57.71
2018-12-12T13:28:26.553Z,58.06
2018-12-12T13:30:55.182Z,58.94
2018-12-12T13:33:24.184Z,59.31
2018-12-12T13:35:53.220Z,60.28
2018-12-12T13:38:21.970Z,60.35
2018-12-12T13:40:50.618Z,61.64
2018-12-12T13:43:19.367Z,60.33
2018-12-12T13:45:47.978Z,62.61
2018-12-12T13:48:16.706Z,62.53
2018-12-12T13:50:45.294Z,62.11
2018-12-12T13:53:13.954Z,62.10
2018-12-12T13:55:42.652Z,63.98
2018-12-12T13:58:11.382Z,62.33
2018-12-12T14:00:40.875Z,61.89
2018-12-12T14:03:09.503Z,62.11
2018-12-12T14:05:38.115Z,62.16
2018-12-12T14:08:06.803Z,62.38
2018-12-12T14:10:35.691Z,61.72
2018-12-12T14:13:04.320Z,63.07
2018-12-12T14:15:33.340Z,63.32
2018-12-12T14:18:01.956Z,63.22
2018-12-12T14:20:30.782Z,62.31
2018-12-12T14:22:59.400Z,61.40
2018-12-12T14:25:28.186Z,63.03
2018-12-12T14:27:56.819Z,61.78
2018-12-12T14:30:25.866Z,63.32
2018-12-12T14:32:54.707Z,62.57
2018-12-12T14:35:23.736Z,64.77
2018-12-12T14:37:52.702Z,63.01
2018-12-12T14:40:21.368Z,63.58
2018-12-12T14:42:50.528Z,63.92
2018-12-12T14:45:19.499Z,64.74
2018-12-12T14:47:48.166Z,63.52
2018-12-12T14:50:18.331Z,64.60
2018-12-12T14:52:47.224Z,65.32
2018-12-12T14:55:15.984Z,64.91
2018-12-12T14:57:44.665Z,64.90
2018-12-12T15:00:13.604Z,65.55
2018-12-12T15:02:42.280Z,64.81
2018-12-12T15:05:11.062Z,66.97
2018-12-12T15:07:39.711Z,64.63
2018-12-12T15:10:08.801Z,63.76
2018-12-12T15:12:38.451Z,64.34
2018-12-12T15:15:07.311Z,66.36
2018-12-12T15:17:36.709Z,64.99
2018-12-12T15:20:05.685Z,63.81
2018-12-12T15:22:36.561Z,64.55
2018-12-12T15:25:05.848Z,66.03
2018-12-12T15:27:34.479Z,65.44
2018-12-12T15:30:03.232Z,64.94
2018-12-12T15:32:31.910Z,66.24
2018-12-12T15:35:00.504Z,64.61
2018-12-12T15:37:29.220Z,68.06
2018-12-12T15:39:57.946Z,66.08
2018-12-12T15:42:26.658Z,66.64
2018-12-12T15:44:55.645Z,65.67
2018-12-12T15:47:24.557Z,66.73
2018-12-12T15:49:53.357Z,70.36
2018-12-12T15:52:22.114Z,69.56
2018-12-12T15:54:52.028Z,71.22
2018-12-12T15:57:20.675Z,70.37
2018-12-12T15:59:50.267Z,70.42
2018-12-12T16:02:18.926Z,72.02
2018-12-12T16:04:49.145Z,72.42
2018-12-12T16:07:18.192Z,72.66
2018-12-12T16:09:46.851Z,71.25
2018-12-12T16:12:15.505Z,70.98
2018-12-12T16:14:44.160Z,71.71
2018-12-12T16:17:12.861Z,71.50
2018-12-12T16:19:41.491Z,72.11
2018-12-12T16:22:10.122Z,71.24
2018-12-12T16:24:38.734Z,71.41
2018-12-12T16:27:07.415Z,72.06
2018-12-12T16:29:36.178Z,72.54
2018-12-12T16:32:04.929Z,72.29
2018-12-12T16:34:33.664Z,73.37
2018-12-12T16:37:02.324Z,72.19
2018-12-12T16:39:31.056Z,71.20
2018-12-12T16:41:59.741Z,71.64
2018-12-12T16:44:28.369Z,72.29
2018-12-12T16:46:56.968Z,71.91
2018-12-12T16:49:25.579Z,70.00
2018-12-12T16:51:54.323Z,69.87
2018-12-12T16:54:22.931Z,69.76
2018-12-12T16:56:51.563Z,70.55
2018-12-12T16:59:20.331Z,71.41
2018-12-12T17:01:49.027Z,71.12
2018-12-12T17:04:17.703Z,71.71
2018-12-12T17:06:46.456Z,71.14
2018-12-12T17:09:15.817Z,70.44
2018-12-12T17:11:44.463Z,70.28
2018-12-12T17:14:13.145Z,71.83
2018-12-12T17:16:41.903Z,72.14
2018-12-12T17:19:10.531Z,71.37
2018-12-12T17:21:39.192Z,71.89
2018-12-12T17:24:07.908Z,71.63
2018-12-12T17:26:36.562Z,71.86
2018-12-12T17:29:05.351Z,71.88
2018-12-12T17:31:34.153Z,71.73
2018-12-12T17:34:02.964Z,71.26
2018-12-12T17:36:31.807Z,71.91
2018-12-12T17:39:00.560Z,71.79
2018-12-12T17:41:30.735Z,72.12
2018-12-12T17:44:00.240Z,73.77
2018-12-12T17:46:28.947Z,73.55
2018-12-12T17:48:58.491Z,72.78
2018-12-12T17:51:27.858Z,72.35
2018-12-12T17:53:56.920Z,72.49
2018-12-12T17:56:25.753Z,72.76
2018-12-12T17:58:54.540Z,73.07
2018-12-12T18:01:23.492Z,73.54
2018-12-12T18:03:52.442Z,73.80
2018-12-12T18:06:21.186Z,73.01
2018-12-12T18:08:50.172Z,72.84
2018-12-12T18:11:19.243Z,72.18
2018-12-12T18:13:47.987Z,73.26
2018-12-12T18:16:16.758Z,74.31
2018-12-12T18:18:45.483Z,73.85
2018-12-12T18:21:14.398Z,73.50
2018-12-12T18:23:43.256Z,73.05
2018-12-12T18:26:12.236Z,72.88
2018-12-12T18:28:40.964Z,73.15
2018-12-12T18:31:09.797Z,73.47
2018-12-12T18:33:38.723Z,73.64
2018-12-12T18:36:07.464Z,73.86
2018-12-12T18:38:36.352Z,72.99
2018-12-12T18:41:05.116Z,73.21
2018-12-12T18:43:33.827Z,73.76
2018-12-12T18:46:02.923Z,72.96
2018-12-12T18:48:31.629Z,72.44
2018-12-12T18:51:00.380Z,72.90
2018-12-12T18:53:29.619Z,72.12
2018-12-12T18:55:58.425Z,72.83
2018-12-12T18:58:27.220Z,71.95
2018-12-12T19:00:58.801Z,72.92
2018-12-12T19:03:27.880Z,71.85
2018-12-12T19:06:02.246Z,72.27
2018-12-12T19:08:30.980Z,71.81
2018-12-12T19:10:59.966Z,72.06
2018-12-12T19:13:28.709Z,71.94
2018-12-12T19:15:57.472Z,71.56
2018-12-12T19:18:26.320Z,71.73
2018-12-12T19:21:00.032Z,71.21
2018-12-12T19:23:26.536Z,70.94
2018-12-12T19:25:55.585Z,70.68
2018-12-12T19:28:24.451Z,70.53
2018-12-12T19:30:53.153Z,71.32
2018-12-12T19:33:21.764Z,70.24
2018-12-12T19:35:50.571Z,70.39
2018-12-12T19:38:19.272Z,70.87
2018-12-12T19:40:47.988Z,70.79
2018-12-12T19:43:17.152Z,69.16
2018-12-12T19:45:45.965Z,69.49
2018-12-12T19:48:14.684Z,70.44
2018-12-12T19:50:43.590Z,70.12
2018-12-12T19:53:12.463Z,70.18
2018-12-12T19:55:41.268Z,70.20
2018-12-12T19:58:10.034Z,70.76
2018-12-12T20:00:38.647Z,70.05
2018-12-12T20:03:07.442Z,70.96
2018-12-12T20:05:41.351Z,70.27
2018-12-12T20:08:07.028Z,71.01
2018-12-12T20:10:35.949Z,70.13
2018-12-12T20:13:04.945Z,70.00
2018-12-12T20:15:38.844Z,70.20
2018-12-12T20:18:07.784Z,70.11
2018-12-12T20:20:36.520Z,69.70
2018-12-12T20:23:05.299Z,70.52
2018-12-12T20:25:34.008Z,69.54
2018-12-12T20:28:02.785Z,69.20
2018-12-12T20:30:35.267Z,68.96
2018-12-12T20:33:02.303Z,70.14
2018-12-12T20:35:31.064Z,69.29
2018-12-12T20:37:59.933Z,69.10
2018-12-12T20:40:28.747Z,69.06
2018-12-12T20:42:57.628Z,69.22
2018-12-12T20:45:26.319Z,69.39
2018-12-12T20:47:55.025Z,68.50
2018-12-12T20:50:23.674Z,69.41
2018-12-12T20:52:52.436Z,69.26
2018-12-12T20:55:21.156Z,69.26
2018-12-12T21:00:39.460Z,70.03
2018-12-12T21:03:08.270Z,69.92
2018-12-12T21:05:36.938Z,70.02
2018-12-12T21:08:05.551Z,70.16
2018-12-12T21:10:34.437Z,69.80
2018-12-12T21:13:03.104Z,68.92
2018-12-12T21:15:31.843Z,69.31
2018-12-12T21:18:00.512Z,68.74
2018-12-12T21:20:29.680Z,69.33
2018-12-12T21:22:58.334Z,69.62
2018-12-12T21:25:29.258Z,70.28
2018-12-12T21:27:58.147Z,70.11
2018-12-12T21:30:27.003Z,70.55
2018-12-12T21:32:55.872Z,71.02
2018-12-12T21:35:25.131Z,70.33
2018-12-12T21:37:53.896Z,70.62
2018-12-12T21:40:22.663Z,71.73
2018-12-12T21:42:51.379Z,71.02
2018-12-12T21:45:20.195Z,71.90
2018-12-12T21:47:48.866Z,71.46
2018-12-12T21:50:17.553Z,71.49
2018-12-12T21:52:46.289Z,71.36
2018-12-12T21:55:15.023Z,71.09
2018-12-12T21:57:43.776Z,70.35
2018-12-12T22:00:12.651Z,71.02
2018-12-12T22:02:41.395Z,71.25
2018-12-12T22:05:10.172Z,70.83
2018-12-12T22:07:38.879Z,70.84
2018-12-12T22:10:07.684Z,70.70
2018-12-12T22:12:36.436Z,71.26
2018-12-12T22:15:06.831Z,70.41
2018-12-12T22:17:35.635Z,71.25
2018-12-12T22:20:04.652Z,71.85
2018-12-12T22:22:33.340Z,72.18
2018-12-12T22:25:02.105Z,71.93
2018-12-12T22:27:30.911Z,71.69
2018-12-12T22:29:59.615Z,72.03
2018-12-12T22:32:28.387Z,71.53
2018-12-12T22:34:57.067Z,72.22
2018-12-12T22:37:25.822Z,71.97
2018-12-12T22:39:54.554Z,72.17
2018-12-12T22:42:23.440Z,72.72
2018-12-12T22:44:52.114Z,72.18
2018-12-12T22:47:20.799Z,71.47
2018-12-12T22:49:49.480Z,73.50
2018-12-12T22:52:18.243Z,72.90
2018-12-12T22:54:46.963Z,72.92
2018-12-12T22:57:15.779Z,73.53
2018-12-12T22:59:45.060Z,73.19
2018-12-12T23:02:13.816Z,73.10
2018-12-12T23:04:42.546Z,72.80
2018-12-12T23:07:11.304Z,73.38
2018-12-12T23:09:40.115Z,74.26
2018-12-12T23:12:08.887Z,74.19
2018-12-12T23:14:37.593Z,74.05
2018-12-12T23:17:06.316Z,73.44
2018-12-12T23:19:35.185Z,72.61
2018-12-12T23:22:03.924Z,72.20
2018-12-12T23:24:32.713Z,71.68
2018-12-12T23:27:01.423Z,71.82
2018-12-12T23:29:30.131Z,72.71
2018-12-12T23:31:58.842Z,72.98
2018-12-12T23:34:27.525Z,73.42
2018-12-12T23:36:56.230Z,73.38
2018-12-12T23:39:25.740Z,73.39
2018-12-12T23:41:54.678Z,72.12
2018-12-12T23:44:23.404Z,72.47
2018-12-12T23:46:52.137Z,71.79
2018-12-12T23:49:20.879Z,72.03
2018-12-12T23:51:49.571Z,72.05
2018-12-12T23:54:18.444Z,72.89
2018-12-12T23:56:47.158Z,72.55
2018-12-12T23:59:15.865Z,72.15
